N207BZ EGCC-EINN
Flight info
| Callsign | N207BZ |
|---|---|
| Flight time | 0h 49m |
| Altitude | 33000 |
| Route | ASMIM L975 WAL L10 PENIL M144 BAGSO DCT PELIG DCT DIGAN DIGAN2E |
| Aircraft | CL35/M-SDFGIRW/S |
Departure
| Time | 2026-05-04 04:55 |
|---|---|
| Airport | Manchester Airport (EGCC) |
Arrival
| Time | 2026-05-04 05:45 |
|---|---|
| Airport | Shannon Airport (EINN) |
| Time | Latitude | Longitude | Altitude | Speed | Heading |
|---|---|---|---|---|---|
| 2026-05-04 04:15 | 53.35901 | -2.28017 | 230 ft | 0 kts | 276° |
| 2026-05-04 04:47 | 53.35914 | -2.27846 | 229 ft | 0 kts | 186° |
| 2026-05-04 04:50 | 53.35903 | -2.27848 | 230 ft | 5 kts | 186° |
| 2026-05-04 04:50 | 53.35844 | -2.27858 | 227 ft | 11 kts | 185° |
| 2026-05-04 04:50 | 53.35763 | -2.27871 | 227 ft | 10 kts | 185° |
| 2026-05-04 04:50 | 53.35683 | -2.27890 | 227 ft | 12 kts | 188° |
| 2026-05-04 04:51 | 53.35609 | -2.27926 | 227 ft | 10 kts | 231° |
| 2026-05-04 04:51 | 53.35557 | -2.28035 | 227 ft | 14 kts | 231° |
| 2026-05-04 04:51 | 53.35476 | -2.28145 | 227 ft | 17 kts | 207° |
| 2026-05-04 04:51 | 53.35356 | -2.28177 | 228 ft | 15 kts | 185° |
| 2026-05-04 04:52 | 53.35260 | -2.28259 | 227 ft | 16 kts | 217° |
| 2026-05-04 04:52 | 53.35181 | -2.28403 | 227 ft | 18 kts | 233° |
| 2026-05-04 04:52 | 53.35098 | -2.28576 | 227 ft | 20 kts | 231° |
| 2026-05-04 04:52 | 53.35009 | -2.28760 | 227 ft | 21 kts | 229° |
| 2026-05-04 04:53 | 53.34907 | -2.28936 | 227 ft | 21 kts | 224° |
| 2026-05-04 04:53 | 53.34805 | -2.29090 | 227 ft | 16 kts | 204° |
| 2026-05-04 04:53 | 53.34721 | -2.29051 | 227 ft | 11 kts | 148° |
| 2026-05-04 04:53 | 53.34672 | -2.28987 | 227 ft | 10 kts | 117° |
| 2026-05-04 04:54 | 53.34698 | -2.28889 | 227 ft | 9 kts | 49° |
| 2026-05-04 04:54 | 53.34717 | -2.28853 | 227 ft | 0 kts | 50° |
| 2026-05-04 04:55 | 53.34741 | -2.28805 | 227 ft | 24 kts | 50° |
| 2026-05-04 04:55 | 53.35010 | -2.28254 | 227 ft | 100 kts | 51° |
| 2026-05-04 04:55 | 53.35560 | -2.27060 | 277 ft | 153 kts | 53° |
| 2026-05-04 04:55 | 53.36239 | -2.25600 | 862 ft | 164 kts | 51° |
| 2026-05-04 04:56 | 53.36986 | -2.24084 | 1632 ft | 172 kts | 51° |
| 2026-05-04 04:56 | 53.37773 | -2.22532 | 2387 ft | 179 kts | 50° |
| 2026-05-04 04:56 | 53.38606 | -2.20929 | 3083 ft | 186 kts | 44° |
| 2026-05-04 04:56 | 53.39659 | -2.19624 | 3780 ft | 189 kts | 27° |
| 2026-05-04 04:57 | 53.40875 | -2.18831 | 4565 ft | 189 kts | 14° |
| 2026-05-04 04:57 | 53.42195 | -2.18533 | 5182 ft | 195 kts | 359° |
| 2026-05-04 04:57 | 53.43542 | -2.18909 | 5825 ft | 199 kts | 342° |
| 2026-05-04 04:57 | 53.44771 | -2.19880 | 6457 ft | 201 kts | 327° |
| 2026-05-04 04:58 | 53.45860 | -2.21387 | 7110 ft | 200 kts | 313° |
| 2026-05-04 04:58 | 53.46668 | -2.23319 | 7644 ft | 206 kts | 297° |
| 2026-05-04 04:58 | 53.47172 | -2.25565 | 8245 ft | 206 kts | 284° |
| 2026-05-04 04:58 | 53.47352 | -2.27943 | 8888 ft | 206 kts | 271° |
| 2026-05-04 04:59 | 53.47304 | -2.30480 | 9294 ft | 233 kts | 267° |
| 2026-05-04 04:59 | 53.47227 | -2.33266 | 10087 ft | 244 kts | 268° |
| 2026-05-04 04:59 | 53.47158 | -2.36099 | 10968 ft | 247 kts | 268° |
| 2026-05-04 04:59 | 53.47095 | -2.38974 | 11930 ft | 248 kts | 268° |
| 2026-05-04 05:00 | 53.47042 | -2.41898 | 12765 ft | 255 kts | 269° |
| 2026-05-04 05:00 | 53.47001 | -2.44929 | 13541 ft | 263 kts | 269° |
| 2026-05-04 05:00 | 53.46502 | -2.51148 | 15020 ft | 276 kts | 257° |
| 2026-05-04 05:01 | 53.46062 | -2.54319 | 15773 ft | 282 kts | 257° |
| 2026-05-04 05:01 | 53.45609 | -2.57551 | 16536 ft | 287 kts | 257° |
| 2026-05-04 05:01 | 53.45148 | -2.60847 | 17329 ft | 293 kts | 257° |
| 2026-05-04 05:01 | 53.44674 | -2.64229 | 18143 ft | 303 kts | 257° |
| 2026-05-04 05:02 | 53.44185 | -2.67731 | 18885 ft | 313 kts | 257° |
| 2026-05-04 05:02 | 53.43681 | -2.71341 | 19628 ft | 323 kts | 257° |
| 2026-05-04 05:02 | 53.43157 | -2.75062 | 20381 ft | 332 kts | 257° |
| 2026-05-04 05:02 | 53.42651 | -2.78879 | 21153 ft | 339 kts | 259° |
| 2026-05-04 05:03 | 53.42248 | -2.82819 | 21950 ft | 346 kts | 261° |
| 2026-05-04 05:03 | 53.41875 | -2.86837 | 22747 ft | 353 kts | 262° |
| 2026-05-04 05:04 | 53.40724 | -2.99333 | 25029 ft | 369 kts | 262° |
| 2026-05-04 05:04 | 53.40312 | -3.03606 | 25770 ft | 373 kts | 262° |
| 2026-05-04 05:04 | 53.39884 | -3.07920 | 26528 ft | 378 kts | 262° |
| 2026-05-04 05:06 | 53.46969 | -3.35047 | 32035 ft | 373 kts | 309° |
| 2026-05-04 05:06 | 53.48469 | -3.38607 | 32820 ft | 373 kts | 309° |
| 2026-05-04 05:06 | 53.50009 | -3.42212 | 33011 ft | 390 kts | 309° |
| 2026-05-04 05:07 | 53.51641 | -3.45989 | 33033 ft | 409 kts | 309° |
| 2026-05-04 05:07 | 53.53356 | -3.49941 | 33034 ft | 427 kts | 309° |
| 2026-05-04 05:07 | 53.55141 | -3.54048 | 33035 ft | 443 kts | 309° |
| 2026-05-04 05:09 | 53.63487 | -3.90914 | 33023 ft | 463 kts | 271° |
| 2026-05-04 05:09 | 53.63339 | -3.96338 | 33023 ft | 464 kts | 270° |
| 2026-05-04 05:10 | 53.62949 | -4.07185 | 33023 ft | 464 kts | 269° |
| 2026-05-04 05:10 | 53.62522 | -4.18022 | 33020 ft | 463 kts | 270° |
| 2026-05-04 05:11 | 53.62401 | -4.28848 | 33023 ft | 462 kts | 274° |
| 2026-05-04 05:11 | 53.62582 | -4.39640 | 33022 ft | 460 kts | 276° |
| 2026-05-04 05:12 | 53.62922 | -4.50403 | 33022 ft | 460 kts | 277° |
| 2026-05-04 05:12 | 53.63275 | -4.61174 | 33026 ft | 461 kts | 277° |
| 2026-05-04 05:13 | 53.63615 | -4.71952 | 33021 ft | 461 kts | 277° |
| 2026-05-04 05:13 | 53.63940 | -4.82680 | 33024 ft | 462 kts | 277° |
| 2026-05-04 05:14 | 53.64256 | -4.93558 | 33025 ft | 462 kts | 277° |
| 2026-05-04 05:14 | 53.64554 | -5.04326 | 33035 ft | 463 kts | 277° |
| 2026-05-04 05:15 | 53.64840 | -5.15162 | 33033 ft | 463 kts | 277° |
| 2026-05-04 05:15 | 53.65113 | -5.26017 | 33043 ft | 464 kts | 277° |
| 2026-05-04 05:16 | 53.65372 | -5.36897 | 33028 ft | 464 kts | 277° |
| 2026-05-04 05:16 | 53.65617 | -5.47776 | 33031 ft | 465 kts | 277° |
| 2026-05-04 05:17 | 53.65111 | -5.58700 | 33039 ft | 475 kts | 260° |
| 2026-05-04 05:17 | 53.62907 | -5.69255 | 33045 ft | 479 kts | 250° |
| 2026-05-04 05:18 | 53.60258 | -5.79562 | 33042 ft | 481 kts | 249° |
| 2026-05-04 05:18 | 53.57528 | -5.89852 | 33040 ft | 481 kts | 249° |
| 2026-05-04 05:19 | 53.54782 | -6.00127 | 33042 ft | 482 kts | 249° |
| 2026-05-04 05:19 | 53.52029 | -6.10407 | 33044 ft | 482 kts | 249° |
| 2026-05-04 05:20 | 53.49270 | -6.20685 | 33046 ft | 483 kts | 248° |
| 2026-05-04 05:20 | 53.46506 | -6.30963 | 33043 ft | 484 kts | 248° |
| 2026-05-04 05:21 | 53.43733 | -6.41259 | 33039 ft | 484 kts | 248° |
| 2026-05-04 05:21 | 53.42446 | -6.46031 | 33046 ft | 484 kts | 248° |
| 2026-05-04 05:22 | 53.39668 | -6.56324 | 33016 ft | 485 kts | 248° |
| 2026-05-04 05:22 | 53.36884 | -6.66627 | 33019 ft | 485 kts | 248° |
| 2026-05-04 05:23 | 53.34097 | -6.76920 | 33021 ft | 486 kts | 248° |
| 2026-05-04 05:23 | 53.31302 | -6.87228 | 33028 ft | 487 kts | 248° |
| 2026-05-04 05:24 | 53.28504 | -6.97531 | 33032 ft | 487 kts | 248° |
| 2026-05-04 05:24 | 53.25698 | -7.07828 | 33043 ft | 487 kts | 248° |
| 2026-05-04 05:25 | 53.22888 | -7.18119 | 33047 ft | 488 kts | 248° |
| 2026-05-04 05:25 | 53.20069 | -7.28418 | 33045 ft | 488 kts | 248° |
| 2026-05-04 05:26 | 53.17243 | -7.38715 | 33042 ft | 488 kts | 248° |
| 2026-05-04 05:26 | 53.14413 | -7.49006 | 33042 ft | 489 kts | 248° |
| 2026-05-04 05:27 | 53.12997 | -7.54153 | 32875 ft | 487 kts | 248° |
| 2026-05-04 05:28 | 53.03287 | -7.89800 | 28270 ft | 476 kts | 248° |
| 2026-05-04 05:29 | 53.01943 | -7.94802 | 27593 ft | 473 kts | 248° |
| 2026-05-04 05:29 | 53.00609 | -7.99776 | 26931 ft | 469 kts | 248° |
| 2026-05-04 05:29 | 52.99293 | -8.04685 | 26293 ft | 462 kts | 248° |
| 2026-05-04 05:29 | 52.97999 | -8.09523 | 25668 ft | 456 kts | 248° |
| 2026-05-04 05:31 | 52.91201 | -8.42617 | 21207 ft | 418 kts | 262° |
| 2026-05-04 05:31 | 52.90713 | -8.47339 | 20567 ft | 414 kts | 262° |
| 2026-05-04 05:32 | 52.90243 | -8.52020 | 19946 ft | 410 kts | 262° |
| 2026-05-04 05:32 | 52.89786 | -8.56653 | 19330 ft | 406 kts | 262° |
| 2026-05-04 05:32 | 52.89338 | -8.61257 | 18720 ft | 403 kts | 262° |
| 2026-05-04 05:33 | 52.88468 | -8.70343 | 17431 ft | 396 kts | 262° |
| 2026-05-04 05:33 | 52.88045 | -8.74827 | 16770 ft | 393 kts | 262° |
| 2026-05-04 05:33 | 52.87628 | -8.79275 | 16128 ft | 390 kts | 262° |
| 2026-05-04 05:33 | 52.87215 | -8.83699 | 15495 ft | 387 kts | 262° |
| 2026-05-04 05:34 | 52.86480 | -8.87961 | 14855 ft | 386 kts | 248° |
| 2026-05-04 05:34 | 52.85236 | -8.91863 | 14246 ft | 382 kts | 240° |
| 2026-05-04 05:34 | 52.83815 | -8.95552 | 13623 ft | 378 kts | 236° |
| 2026-05-04 05:34 | 52.82275 | -8.99051 | 12955 ft | 375 kts | 233° |
| 2026-05-04 05:35 | 52.80699 | -9.02461 | 12310 ft | 372 kts | 233° |
| 2026-05-04 05:35 | 52.79120 | -9.05821 | 11673 ft | 369 kts | 232° |
| 2026-05-04 05:35 | 52.77554 | -9.09129 | 11050 ft | 363 kts | 232° |
| 2026-05-04 05:35 | 52.76006 | -9.12384 | 10420 ft | 357 kts | 232° |
| 2026-05-04 05:36 | 52.74490 | -9.15562 | 9808 ft | 349 kts | 232° |
| 2026-05-04 05:36 | 52.73501 | -9.17627 | 9369 ft | 345 kts | 232° |
| 2026-05-04 05:36 | 52.72767 | -9.19158 | 9036 ft | 342 kts | 232° |
| 2026-05-04 05:36 | 52.71303 | -9.22213 | 8378 ft | 335 kts | 232° |
| 2026-05-04 05:37 | 52.69873 | -9.25199 | 7736 ft | 329 kts | 232° |
| 2026-05-04 05:37 | 52.68466 | -9.28139 | 7105 ft | 324 kts | 232° |
| 2026-05-04 05:37 | 52.67083 | -9.31036 | 6490 ft | 320 kts | 232° |
| 2026-05-04 05:38 | 52.64364 | -9.36738 | 5219 ft | 312 kts | 232° |
| 2026-05-04 05:38 | 52.62853 | -9.39209 | 4676 ft | 306 kts | 212° |
| 2026-05-04 05:38 | 52.60890 | -9.40202 | 4149 ft | 299 kts | 180° |
| 2026-05-04 05:38 | 52.58993 | -9.39326 | 4043 ft | 275 kts | 146° |
| 2026-05-04 05:39 | 52.57830 | -9.37081 | 4032 ft | 250 kts | 110° |
| 2026-05-04 05:39 | 52.57891 | -9.32180 | 4115 ft | 191 kts | 73° |
| 2026-05-04 05:39 | 52.58314 | -9.30091 | 3849 ft | 195 kts | 69° |
| 2026-05-04 05:40 | 52.59123 | -9.25846 | 3529 ft | 190 kts | 72° |
| 2026-05-04 05:40 | 52.59467 | -9.23747 | 3342 ft | 191 kts | 73° |
| 2026-05-04 05:40 | 52.59799 | -9.21638 | 3228 ft | 188 kts | 74° |
| 2026-05-04 05:41 | 52.60118 | -9.19557 | 3162 ft | 187 kts | 74° |
| 2026-05-04 05:41 | 52.60438 | -9.17477 | 3027 ft | 190 kts | 73° |
| 2026-05-04 05:41 | 52.60784 | -9.15345 | 2807 ft | 196 kts | 73° |
| 2026-05-04 05:41 | 52.61233 | -9.13208 | 2563 ft | 199 kts | 65° |
| 2026-05-04 05:42 | 52.61870 | -9.11208 | 2452 ft | 196 kts | 59° |
| 2026-05-04 05:42 | 52.62599 | -9.09340 | 2356 ft | 193 kts | 54° |
| 2026-05-04 05:42 | 52.63364 | -9.07518 | 2159 ft | 195 kts | 56° |
| 2026-05-04 05:42 | 52.64038 | -9.05760 | 1964 ft | 169 kts | 57° |
| 2026-05-04 05:43 | 52.64690 | -9.04159 | 1483 ft | 164 kts | 53° |
| 2026-05-04 05:43 | 52.65352 | -9.02708 | 1174 ft | 153 kts | 51° |
| 2026-05-04 05:43 | 52.66003 | -9.01344 | 946 ft | 151 kts | 50° |
| 2026-05-04 05:45 | 52.69966 | -8.92982 | 33 ft | 45 kts | 52° |
| 2026-05-04 05:45 | 52.70140 | -8.92622 | 27 ft | 37 kts | 50° |
| 2026-05-04 05:47 | 52.70496 | -8.91087 | 17 ft | 22 kts | 169° |
| 2026-05-04 05:47 | 52.70336 | -8.91039 | 17 ft | 25 kts | 169° |
| 2026-05-04 05:47 | 52.70194 | -8.91004 | 17 ft | 15 kts | 187° |
| 2026-05-04 05:48 | 52.70087 | -8.91064 | 19 ft | 17 kts | 199° |
| 2026-05-04 05:48 | 52.69974 | -8.91129 | 17 ft | 15 kts | 199° |
| 2026-05-04 05:48 | 52.69878 | -8.91185 | 17 ft | 16 kts | 199° |
| 2026-05-04 05:48 | 52.69758 | -8.91252 | 20 ft | 20 kts | 199° |
| 2026-05-04 05:49 | 52.69617 | -8.91331 | 18 ft | 21 kts | 199° |
| 2026-05-04 05:49 | 52.69470 | -8.91414 | 19 ft | 21 kts | 198° |
| 2026-05-04 05:49 | 52.69339 | -8.91488 | 17 ft | 14 kts | 199° |
| 2026-05-04 05:49 | 52.69302 | -8.91572 | 17 ft | 10 kts | 312° |
| 2026-05-04 05:51 | 52.69495 | -8.92311 | 18 ft | 0 kts | 219° |
| 2026-05-04 05:52 | 52.69494 | -8.92312 | 18 ft | 1 kts | 217° |
| 2026-05-04 05:52 | 52.69461 | -8.92297 | 17 ft | 8 kts | 145° |
| 2026-05-04 05:52 | 52.69405 | -8.92278 | 17 ft | 7 kts | 185° |
| 2026-05-04 05:52 | 52.69380 | -8.92281 | 17 ft | 2 kts | 185° |
| 2026-05-04 05:53 | 52.69378 | -8.92281 | 17 ft | 0 kts | 185° |